sensor_id;sensor_type;location;lat;lon;timestamp;P1;durP1;ratioP1;P2;durP2;ratioP2
6452;SDS011;3259;51.080;13.712;2023-02-16T00:02:38;4.07;;;1.80;;
6452;SDS011;3259;51.080;13.712;2023-02-16T00:05:29;2.45;;;2.10;;
6452;SDS011;3259;51.080;13.712;2023-02-16T00:08:18;2.20;;;1.73;;
6452;SDS011;3259;51.080;13.712;2023-02-16T00:11:10;3.67;;;2.03;;
6452;SDS011;3259;51.080;13.712;2023-02-16T00:14:20;1.65;;;1.55;;
6452;SDS011;3259;51.080;13.712;2023-02-16T00:17:11;1.70;;;1.60;;
6452;SDS011;3259;51.080;13.712;2023-02-16T00:20:00;1.65;;;1.50;;
6452;SDS011;3259;51.080;13.712;2023-02-16T00:22:49;2.13;;;1.90;;
6452;SDS011;3259;51.080;13.712;2023-02-16T00:25:38;1.95;;;1.80;;
6452;SDS011;3259;51.080;13.712;2023-02-16T00:28:27;1.60;;;1.50;;
6452;SDS011;3259;51.080;13.712;2023-02-16T00:31:19;2.22;;;1.35;;
6452;SDS011;3259;51.080;13.712;2023-02-16T00:34:18;2.00;;;1.90;;
6452;SDS011;3259;51.080;13.712;2023-02-16T00:37:13;4.65;;;1.63;;
6452;SDS011;3259;51.080;13.712;2023-02-16T00:40:02;1.40;;;1.33;;
6452;SDS011;3259;51.080;13.712;2023-02-16T00:42:51;2.25;;;1.73;;
6452;SDS011;3259;51.080;13.712;2023-02-16T00:45:43;3.00;;;1.50;;
6452;SDS011;3259;51.080;13.712;2023-02-16T00:48:33;1.40;;;1.20;;
6452;SDS011;3259;51.080;13.712;2023-02-16T00:51:22;1.52;;;1.42;;
6452;SDS011;3259;51.080;13.712;2023-02-16T00:54:12;1.80;;;1.70;;
6452;SDS011;3259;51.080;13.712;2023-02-16T00:57:01;1.33;;;1.23;;
6452;SDS011;3259;51.080;13.712;2023-02-16T00:59:53;1.38;;;1.27;;
6452;SDS011;3259;51.080;13.712;2023-02-16T01:02:46;1.52;;;1.42;;
6452;SDS011;3259;51.080;13.712;2023-02-16T01:05:37;1.42;;;1.33;;
6452;SDS011;3259;51.080;13.712;2023-02-16T01:08:26;1.10;;;1.10;;
6452;SDS011;3259;51.080;13.712;2023-02-16T01:11:32;1.40;;;1.27;;
6452;SDS011;3259;51.080;13.712;2023-02-16T01:14:21;1.40;;;1.30;;
6452;SDS011;3259;51.080;13.712;2023-02-16T01:17:10;1.38;;;1.27;;
6452;SDS011;3259;51.080;13.712;2023-02-16T01:19:59;1.67;;;1.58;;
6452;SDS011;3259;51.080;13.712;2023-02-16T01:22:51;2.17;;;1.15;;
6452;SDS011;3259;51.080;13.712;2023-02-16T01:25:40;0.98;;;0.98;;
6452;SDS011;3259;51.080;13.712;2023-02-16T01:28:29;1.23;;;0.93;;
6452;SDS011;3259;51.080;13.712;2023-02-16T01:31:21;2.25;;;1.45;;
6452;SDS011;3259;51.080;13.712;2023-02-16T01:34:10;1.85;;;1.42;;
6452;SDS011;3259;51.080;13.712;2023-02-16T01:36:59;2.67;;;1.35;;
6452;SDS011;3259;51.080;13.712;2023-02-16T01:39:50;1.40;;;1.13;;
6452;SDS011;3259;51.080;13.712;2023-02-16T01:42:40;0.90;;;0.90;;
6452;SDS011;3259;51.080;13.712;2023-02-16T01:45:35;1.45;;;1.33;;
6452;SDS011;3259;51.080;13.712;2023-02-16T01:48:26;1.00;;;0.88;;
6452;SDS011;3259;51.080;13.712;2023-02-16T01:51:18;1.00;;;1.00;;
6452;SDS011;3259;51.080;13.712;2023-02-16T01:54:10;1.77;;;1.40;;
6452;SDS011;3259;51.080;13.712;2023-02-16T01:57:05;1.23;;;1.08;;
6452;SDS011;3259;51.080;13.712;2023-02-16T02:00:02;1.40;;;0.90;;
6452;SDS011;3259;51.080;13.712;2023-02-16T02:02:55;3.13;;;1.08;;
6452;SDS011;3259;51.080;13.712;2023-02-16T02:06:06;1.40;;;0.98;;
6452;SDS011;3259;51.080;13.712;2023-02-16T02:08:55;1.48;;;1.13;;
6452;SDS011;3259;51.080;13.712;2023-02-16T02:11:48;0.95;;;0.85;;
6452;SDS011;3259;51.080;13.712;2023-02-16T02:14:40;1.00;;;0.90;;
6452;SDS011;3259;51.080;13.712;2023-02-16T02:17:29;7.47;;;1.13;;
6452;SDS011;3259;51.080;13.712;2023-02-16T02:20:20;0.77;;;0.77;;
6452;SDS011;3259;51.080;13.712;2023-02-16T02:27:02;0.90;;;0.90;;
6452;SDS011;3259;51.080;13.712;2023-02-16T02:30:07;1.20;;;1.10;;
6452;SDS011;3259;51.080;13.712;2023-02-16T02:33:08;1.42;;;1.10;;
6452;SDS011;3259;51.080;13.712;2023-02-16T02:36:07;1.33;;;1.23;;
6452;SDS011;3259;51.080;13.712;2023-02-16T02:39:03;0.95;;;0.95;;
6452;SDS011;3259;51.080;13.712;2023-02-16T02:42:03;1.02;;;0.88;;
6452;SDS011;3259;51.080;13.712;2023-02-16T02:44:56;0.85;;;0.85;;
6452;SDS011;3259;51.080;13.712;2023-02-16T02:47:47;4.35;;;1.02;;
6452;SDS011;3259;51.080;13.712;2023-02-16T02:50:38;2.03;;;0.70;;
6452;SDS011;3259;51.080;13.712;2023-02-16T02:53:50;1.27;;;1.17;;
6452;SDS011;3259;51.080;13.712;2023-02-16T02:57:04;0.90;;;0.90;;
6452;SDS011;3259;51.080;13.712;2023-02-16T03:00:14;0.70;;;0.70;;
6452;SDS011;3259;51.080;13.712;2023-02-16T03:03:25;1.23;;;0.80;;
6452;SDS011;3259;51.080;13.712;2023-02-16T03:06:18;4.82;;;0.85;;
6452;SDS011;3259;51.080;13.712;2023-02-16T03:09:11;1.02;;;0.98;;
6452;SDS011;3259;51.080;13.712;2023-02-16T03:12:02;1.13;;;0.63;;
6452;SDS011;3259;51.080;13.712;2023-02-16T03:15:10;0.90;;;0.90;;
6452;SDS011;3259;51.080;13.712;2023-02-16T03:17:59;1.30;;;0.75;;
6452;SDS011;3259;51.080;13.712;2023-02-16T03:21:07;0.75;;;0.75;;
6452;SDS011;3259;51.080;13.712;2023-02-16T03:24:14;1.02;;;0.93;;
6452;SDS011;3259;51.080;13.712;2023-02-16T03:27:26;1.20;;;1.10;;
6452;SDS011;3259;51.080;13.712;2023-02-16T03:30:34;1.58;;;1.25;;
6452;SDS011;3259;51.080;13.712;2023-02-16T03:33:24;0.80;;;0.80;;
6452;SDS011;3259;51.080;13.712;2023-02-16T03:36:13;1.05;;;1.00;;
6452;SDS011;3259;51.080;13.712;2023-02-16T03:39:03;4.22;;;1.00;;
6452;SDS011;3259;51.080;13.712;2023-02-16T03:41:53;2.53;;;0.95;;
6452;SDS011;3259;51.080;13.712;2023-02-16T03:44:45;0.65;;;0.65;;
6452;SDS011;3259;51.080;13.712;2023-02-16T03:47:34;0.45;;;0.43;;
6452;SDS011;3259;51.080;13.712;2023-02-16T03:50:23;0.75;;;0.68;;
6452;SDS011;3259;51.080;13.712;2023-02-16T03:53:13;0.75;;;0.75;;
6452;SDS011;3259;51.080;13.712;2023-02-16T03:56:04;1.15;;;0.80;;
6452;SDS011;3259;51.080;13.712;2023-02-16T03:58:53;0.70;;;0.70;;
6452;SDS011;3259;51.080;13.712;2023-02-16T04:01:43;0.73;;;0.60;;
6452;SDS011;3259;51.080;13.712;2023-02-16T04:04:32;1.60;;;0.80;;
6452;SDS011;3259;51.080;13.712;2023-02-16T04:07:22;0.55;;;0.55;;
6452;SDS011;3259;51.080;13.712;2023-02-16T04:10:11;2.08;;;0.60;;
6452;SDS011;3259;51.080;13.712;2023-02-16T04:13:01;0.70;;;0.70;;
6452;SDS011;3259;51.080;13.712;2023-02-16T04:15:49;0.38;;;0.38;;
6452;SDS011;3259;51.080;13.712;2023-02-16T04:18:40;1.17;;;0.60;;
6452;SDS011;3259;51.080;13.712;2023-02-16T04:21:29;1.00;;;0.60;;
6452;SDS011;3259;51.080;13.712;2023-02-16T04:24:19;2.05;;;0.70;;
6452;SDS011;3259;51.080;13.712;2023-02-16T04:27:07;0.80;;;0.80;;
6452;SDS011;3259;51.080;13.712;2023-02-16T04:30:00;0.70;;;0.70;;
6452;SDS011;3259;51.080;13.712;2023-02-16T04:32:49;1.00;;;1.00;;
6452;SDS011;3259;51.080;13.712;2023-02-16T04:35:40;1.65;;;0.50;;
6452;SDS011;3259;51.080;13.712;2023-02-16T04:38:29;0.50;;;0.50;;
6452;SDS011;3259;51.080;13.712;2023-02-16T04:41:19;1.00;;;0.70;;
6452;SDS011;3259;51.080;13.712;2023-02-16T04:44:08;0.73;;;0.60;;
6452;SDS011;3259;51.080;13.712;2023-02-16T04:46:57;1.02;;;0.45;;
6452;SDS011;3259;51.080;13.712;2023-02-16T04:49:46;0.40;;;0.40;;
6452;SDS011;3259;51.080;13.712;2023-02-16T04:52:37;3.35;;;0.68;;
6452;SDS011;3259;51.080;13.712;2023-02-16T04:55:27;0.60;;;0.60;;
6452;SDS011;3259;51.080;13.712;2023-02-16T04:58:16;0.93;;;0.85;;
6452;SDS011;3259;51.080;13.712;2023-02-16T05:01:05;0.55;;;0.52;;
6452;SDS011;3259;51.080;13.712;2023-02-16T05:03:55;3.45;;;0.98;;
6452;SDS011;3259;51.080;13.712;2023-02-16T05:06:44;0.43;;;0.40;;
6452;SDS011;3259;51.080;13.712;2023-02-16T05:09:35;0.98;;;0.63;;
6452;SDS011;3259;51.080;13.712;2023-02-16T05:12:23;1.58;;;0.77;;
6452;SDS011;3259;51.080;13.712;2023-02-16T05:15:30;2.80;;;0.60;;
6452;SDS011;3259;51.080;13.712;2023-02-16T05:18:21;0.40;;;0.40;;
6452;SDS011;3259;51.080;13.712;2023-02-16T05:21:10;1.80;;;0.60;;
6452;SDS011;3259;51.080;13.712;2023-02-16T05:24:16;1.67;;;0.70;;
6452;SDS011;3259;51.080;13.712;2023-02-16T05:27:08;3.35;;;0.55;;
6452;SDS011;3259;51.080;13.712;2023-02-16T05:29:59;2.05;;;0.60;;
6452;SDS011;3259;51.080;13.712;2023-02-16T05:32:48;1.05;;;0.50;;
6452;SDS011;3259;51.080;13.712;2023-02-16T05:35:37;1.13;;;0.82;;
6452;SDS011;3259;51.080;13.712;2023-02-16T05:38:26;1.35;;;0.50;;
6452;SDS011;3259;51.080;13.712;2023-02-16T05:41:16;0.73;;;0.50;;
6452;SDS011;3259;51.080;13.712;2023-02-16T05:44:11;1.88;;;0.90;;
6452;SDS011;3259;51.080;13.712;2023-02-16T05:47:00;1.85;;;0.70;;
6452;SDS011;3259;51.080;13.712;2023-02-16T05:49:49;1.92;;;0.45;;
6452;SDS011;3259;51.080;13.712;2023-02-16T05:52:38;3.85;;;0.73;;
6452;SDS011;3259;51.080;13.712;2023-02-16T05:55:27;1.48;;;0.70;;
6452;SDS011;3259;51.080;13.712;2023-02-16T05:58:16;0.57;;;0.57;;
6452;SDS011;3259;51.080;13.712;2023-02-16T06:01:06;0.63;;;0.63;;
6452;SDS011;3259;51.080;13.712;2023-02-16T06:03:56;0.88;;;0.57;;
6452;SDS011;3259;51.080;13.712;2023-02-16T06:06:45;1.25;;;0.50;;
6452;SDS011;3259;51.080;13.712;2023-02-16T06:09:34;1.67;;;0.93;;
6452;SDS011;3259;51.080;13.712;2023-02-16T06:12:23;7.35;;;1.08;;
6452;SDS011;3259;51.080;13.712;2023-02-16T06:15:12;5.80;;;1.15;;
6452;SDS011;3259;51.080;13.712;2023-02-16T06:18:03;5.00;;;1.48;;
6452;SDS011;3259;51.080;13.712;2023-02-16T06:20:52;3.63;;;1.13;;
6452;SDS011;3259;51.080;13.712;2023-02-16T06:23:44;4.25;;;1.55;;
6452;SDS011;3259;51.080;13.712;2023-02-16T06:26:33;1.95;;;1.02;;
6452;SDS011;3259;51.080;13.712;2023-02-16T06:29:22;4.63;;;1.55;;
6452;SDS011;3259;51.080;13.712;2023-02-16T06:32:14;4.10;;;1.70;;
6452;SDS011;3259;51.080;13.712;2023-02-16T06:35:06;3.55;;;1.50;;
6452;SDS011;3259;51.080;13.712;2023-02-16T06:37:55;3.60;;;1.25;;
6452;SDS011;3259;51.080;13.712;2023-02-16T06:40:45;2.28;;;1.00;;
6452;SDS011;3259;51.080;13.712;2023-02-16T06:43:34;1.85;;;1.38;;
6452;SDS011;3259;51.080;13.712;2023-02-16T06:46:24;2.03;;;1.33;;
6452;SDS011;3259;51.080;13.712;2023-02-16T06:49:14;1.90;;;1.02;;
6452;SDS011;3259;51.080;13.712;2023-02-16T06:52:07;1.38;;;1.15;;
6452;SDS011;3259;51.080;13.712;2023-02-16T06:54:55;2.17;;;1.48;;
6452;SDS011;3259;51.080;13.712;2023-02-16T06:57:44;1.70;;;1.50;;
6452;SDS011;3259;51.080;13.712;2023-02-16T07:00:33;1.20;;;1.10;;
6452;SDS011;3259;51.080;13.712;2023-02-16T07:03:23;4.57;;;1.50;;
6452;SDS011;3259;51.080;13.712;2023-02-16T07:06:12;1.25;;;0.88;;
6452;SDS011;3259;51.080;13.712;2023-02-16T07:09:02;3.67;;;1.08;;
6452;SDS011;3259;51.080;13.712;2023-02-16T07:11:52;2.00;;;1.13;;
6452;SDS011;3259;51.080;13.712;2023-02-16T07:14:41;3.22;;;1.27;;
6452;SDS011;3259;51.080;13.712;2023-02-16T07:17:31;3.40;;;1.02;;
6452;SDS011;3259;51.080;13.712;2023-02-16T07:20:20;1.52;;;1.10;;
6452;SDS011;3259;51.080;13.712;2023-02-16T07:23:09;1.42;;;1.00;;
6452;SDS011;3259;51.080;13.712;2023-02-16T07:26:01;2.47;;;1.20;;
6452;SDS011;3259;51.080;13.712;2023-02-16T07:28:51;2.35;;;0.73;;
6452;SDS011;3259;51.080;13.712;2023-02-16T07:31:40;1.27;;;1.15;;
6452;SDS011;3259;51.080;13.712;2023-02-16T07:34:29;1.95;;;0.90;;
6452;SDS011;3259;51.080;13.712;2023-02-16T07:37:19;4.25;;;0.80;;
6452;SDS011;3259;51.080;13.712;2023-02-16T07:40:08;1.80;;;0.80;;
6452;SDS011;3259;51.080;13.712;2023-02-16T07:43:00;5.38;;;1.10;;
6452;SDS011;3259;51.080;13.712;2023-02-16T07:45:50;2.05;;;0.70;;
6452;SDS011;3259;51.080;13.712;2023-02-16T07:48:39;1.52;;;1.00;;
6452;SDS011;3259;51.080;13.712;2023-02-16T07:51:29;1.38;;;0.70;;
6452;SDS011;3259;51.080;13.712;2023-02-16T07:54:18;1.08;;;0.80;;
6452;SDS011;3259;51.080;13.712;2023-02-16T07:57:08;0.50;;;0.50;;
6452;SDS011;3259;51.080;13.712;2023-02-16T07:59:58;1.67;;;0.68;;
6452;SDS011;3259;51.080;13.712;2023-02-16T08:02:47;0.50;;;0.40;;
6452;SDS011;3259;51.080;13.712;2023-02-16T08:05:37;0.80;;;0.80;;
6452;SDS011;3259;51.080;13.712;2023-02-16T08:08:27;1.35;;;0.70;;
6452;SDS011;3259;51.080;13.712;2023-02-16T08:11:20;1.05;;;0.65;;
6452;SDS011;3259;51.080;13.712;2023-02-16T08:14:11;1.55;;;0.80;;
6452;SDS011;3259;51.080;13.712;2023-02-16T08:17:01;0.80;;;0.80;;
6452;SDS011;3259;51.080;13.712;2023-02-16T08:19:50;0.75;;;0.75;;
6452;SDS011;3259;51.080;13.712;2023-02-16T08:22:39;2.45;;;0.45;;
6452;SDS011;3259;51.080;13.712;2023-02-16T08:25:29;2.40;;;1.00;;
6452;SDS011;3259;51.080;13.712;2023-02-16T08:28:18;1.20;;;0.90;;
6452;SDS011;3259;51.080;13.712;2023-02-16T08:31:08;0.88;;;0.73;;
6452;SDS011;3259;51.080;13.712;2023-02-16T08:33:59;0.85;;;0.60;;
6452;SDS011;3259;51.080;13.712;2023-02-16T08:36:51;0.93;;;0.70;;
6452;SDS011;3259;51.080;13.712;2023-02-16T08:39:41;1.52;;;0.73;;
6452;SDS011;3259;51.080;13.712;2023-02-16T08:42:31;0.88;;;0.70;;
6452;SDS011;3259;51.080;13.712;2023-02-16T08:45:20;1.67;;;0.77;;
6452;SDS011;3259;51.080;13.712;2023-02-16T08:48:09;2.78;;;0.68;;
6452;SDS011;3259;51.080;13.712;2023-02-16T08:51:00;0.75;;;0.75;;
6452;SDS011;3259;51.080;13.712;2023-02-16T08:53:49;0.85;;;0.70;;
6452;SDS011;3259;51.080;13.712;2023-02-16T08:56:38;0.65;;;0.50;;
6452;SDS011;3259;51.080;13.712;2023-02-16T08:59:34;0.73;;;0.38;;
6452;SDS011;3259;51.080;13.712;2023-02-16T09:02:23;4.32;;;1.05;;
6452;SDS011;3259;51.080;13.712;2023-02-16T09:05:13;1.25;;;0.70;;
6452;SDS011;3259;51.080;13.712;2023-02-16T09:08:04;2.30;;;0.50;;
6452;SDS011;3259;51.080;13.712;2023-02-16T09:10:54;0.90;;;0.70;;
6452;SDS011;3259;51.080;13.712;2023-02-16T09:13:43;0.77;;;0.77;;
6452;SDS011;3259;51.080;13.712;2023-02-16T09:16:32;0.63;;;0.63;;
6452;SDS011;3259;51.080;13.712;2023-02-16T09:19:24;0.60;;;0.60;;
6452;SDS011;3259;51.080;13.712;2023-02-16T09:22:14;1.08;;;0.73;;
6452;SDS011;3259;51.080;13.712;2023-02-16T09:25:05;3.42;;;0.52;;
6452;SDS011;3259;51.080;13.712;2023-02-16T09:27:56;1.05;;;0.70;;
6452;SDS011;3259;51.080;13.712;2023-02-16T09:30:45;0.80;;;0.65;;
6452;SDS011;3259;51.080;13.712;2023-02-16T09:33:34;0.88;;;0.50;;
6452;SDS011;3259;51.080;13.712;2023-02-16T09:36:24;0.63;;;0.52;;
6452;SDS011;3259;51.080;13.712;2023-02-16T09:39:13;1.50;;;0.65;;
6452;SDS011;3259;51.080;13.712;2023-02-16T09:42:10;0.93;;;0.60;;
6452;SDS011;3259;51.080;13.712;2023-02-16T09:45:07;2.13;;;0.50;;
6452;SDS011;3259;51.080;13.712;2023-02-16T09:48:00;1.65;;;0.65;;
6452;SDS011;3259;51.080;13.712;2023-02-16T09:50:49;1.20;;;0.60;;
6452;SDS011;3259;51.080;13.712;2023-02-16T09:53:41;0.82;;;0.70;;
6452;SDS011;3259;51.080;13.712;2023-02-16T09:56:33;0.65;;;0.30;;
6452;SDS011;3259;51.080;13.712;2023-02-16T09:59:31;0.55;;;0.52;;
6452;SDS011;3259;51.080;13.712;2023-02-16T10:02:39;0.77;;;0.60;;
6452;SDS011;3259;51.080;13.712;2023-02-16T10:05:33;0.50;;;0.50;;
6452;SDS011;3259;51.080;13.712;2023-02-16T10:08:32;0.43;;;0.40;;
6452;SDS011;3259;51.080;13.712;2023-02-16T10:11:25;0.57;;;0.50;;
6452;SDS011;3259;51.080;13.712;2023-02-16T10:14:31;0.38;;;0.38;;
6452;SDS011;3259;51.080;13.712;2023-02-16T10:17:24;0.50;;;0.50;;
6452;SDS011;3259;51.080;13.712;2023-02-16T10:20:20;3.15;;;0.52;;
6452;SDS011;3259;51.080;13.712;2023-02-16T10:23:23;0.60;;;0.60;;
6452;SDS011;3259;51.080;13.712;2023-02-16T10:26:20;0.40;;;0.40;;
6452;SDS011;3259;51.080;13.712;2023-02-16T10:29:14;0.50;;;0.30;;
6452;SDS011;3259;51.080;13.712;2023-02-16T10:32:09;0.73;;;0.60;;
6452;SDS011;3259;51.080;13.712;2023-02-16T10:35:08;0.45;;;0.45;;
6452;SDS011;3259;51.080;13.712;2023-02-16T10:38:02;0.47;;;0.47;;
6452;SDS011;3259;51.080;13.712;2023-02-16T10:40:54;1.75;;;0.50;;
6452;SDS011;3259;51.080;13.712;2023-02-16T10:43:46;0.57;;;0.50;;
6452;SDS011;3259;51.080;13.712;2023-02-16T10:46:41;0.35;;;0.35;;
6452;SDS011;3259;51.080;13.712;2023-02-16T10:49:33;0.35;;;0.35;;
6452;SDS011;3259;51.080;13.712;2023-02-16T10:52:23;0.32;;;0.20;;
6452;SDS011;3259;51.080;13.712;2023-02-16T10:55:13;0.30;;;0.30;;
6452;SDS011;3259;51.080;13.712;2023-02-16T10:58:02;0.82;;;0.60;;
6452;SDS011;3259;51.080;13.712;2023-02-16T11:00:55;0.47;;;0.30;;
6452;SDS011;3259;51.080;13.712;2023-02-16T11:03:49;0.20;;;0.20;;
6452;SDS011;3259;51.080;13.712;2023-02-16T11:06:41;0.82;;;0.30;;
6452;SDS011;3259;51.080;13.712;2023-02-16T11:09:30;0.20;;;0.20;;
6452;SDS011;3259;51.080;13.712;2023-02-16T11:12:25;0.20;;;0.20;;
6452;SDS011;3259;51.080;13.712;2023-02-16T11:15:21;2.35;;;0.47;;
6452;SDS011;3259;51.080;13.712;2023-02-16T11:18:20;0.30;;;0.30;;
6452;SDS011;3259;51.080;13.712;2023-02-16T11:21:14;1.95;;;0.60;;
6452;SDS011;3259;51.080;13.712;2023-02-16T11:24:08;0.25;;;0.25;;
6452;SDS011;3259;51.080;13.712;2023-02-16T11:27:00;0.63;;;0.63;;
6452;SDS011;3259;51.080;13.712;2023-02-16T11:30:01;1.95;;;0.57;;
6452;SDS011;3259;51.080;13.712;2023-02-16T11:33:17;0.13;;;0.13;;
6452;SDS011;3259;51.080;13.712;2023-02-16T11:36:23;2.63;;;0.70;;
6452;SDS011;3259;51.080;13.712;2023-02-16T11:39:18;0.40;;;0.40;;
6452;SDS011;3259;51.080;13.712;2023-02-16T11:42:09;1.17;;;0.50;;
6452;SDS011;3259;51.080;13.712;2023-02-16T11:45:20;0.32;;;0.32;;
6452;SDS011;3259;51.080;13.712;2023-02-16T11:48:13;3.03;;;0.85;;
6452;SDS011;3259;51.080;13.712;2023-02-16T11:51:03;2.80;;;0.65;;
6452;SDS011;3259;51.080;13.712;2023-02-16T11:53:57;1.13;;;1.02;;
6452;SDS011;3259;51.080;13.712;2023-02-16T11:57:01;18.40;;;9.88;;
6452;SDS011;3259;51.080;13.712;2023-02-16T11:59:51;41.10;;;23.50;;
6452;SDS011;3259;51.080;13.712;2023-02-16T12:06:03;27.70;;;15.05;;
6452;SDS011;3259;51.080;13.712;2023-02-16T12:09:04;18.80;;;12.20;;
6452;SDS011;3259;51.080;13.712;2023-02-16T12:11:59;18.58;;;12.23;;
6452;SDS011;3259;51.080;13.712;2023-02-16T12:14:56;14.90;;;10.40;;
6452;SDS011;3259;51.080;13.712;2023-02-16T12:17:54;16.33;;;9.32;;
6452;SDS011;3259;51.080;13.712;2023-02-16T12:20:49;18.25;;;8.63;;
6452;SDS011;3259;51.080;13.712;2023-02-16T12:23:48;12.23;;;7.38;;
6452;SDS011;3259;51.080;13.712;2023-02-16T12:26:45;10.57;;;7.25;;
6452;SDS011;3259;51.080;13.712;2023-02-16T12:29:38;10.35;;;7.22;;
6452;SDS011;3259;51.080;13.712;2023-02-16T12:35:55;12.25;;;7.47;;
6452;SDS011;3259;51.080;13.712;2023-02-16T12:39:02;11.73;;;6.35;;
6452;SDS011;3259;51.080;13.712;2023-02-16T12:45:17;9.88;;;6.97;;
6452;SDS011;3259;51.080;13.712;2023-02-16T12:48:13;8.07;;;5.85;;
6452;SDS011;3259;51.080;13.712;2023-02-16T12:51:10;10.02;;;6.35;;
6452;SDS011;3259;51.080;13.712;2023-02-16T12:54:03;6.38;;;5.35;;
6452;SDS011;3259;51.080;13.712;2023-02-16T12:56:58;9.15;;;5.88;;
6452;SDS011;3259;51.080;13.712;2023-02-16T12:59:49;9.75;;;5.65;;
6452;SDS011;3259;51.080;13.712;2023-02-16T13:02:44;9.02;;;6.82;;
6452;SDS011;3259;51.080;13.712;2023-02-16T13:05:36;15.73;;;9.57;;
6452;SDS011;3259;51.080;13.712;2023-02-16T13:08:28;15.07;;;9.70;;
6452;SDS011;3259;51.080;13.712;2023-02-16T13:11:27;17.67;;;10.68;;
6452;SDS011;3259;51.080;13.712;2023-02-16T13:14:20;16.85;;;11.07;;
6452;SDS011;3259;51.080;13.712;2023-02-16T13:17:13;22.17;;;11.48;;
6452;SDS011;3259;51.080;13.712;2023-02-16T13:20:13;16.73;;;11.07;;
6452;SDS011;3259;51.080;13.712;2023-02-16T13:23:18;16.83;;;11.35;;
6452;SDS011;3259;51.080;13.712;2023-02-16T13:26:19;21.98;;;11.77;;
6452;SDS011;3259;51.080;13.712;2023-02-16T13:29:26;18.52;;;11.63;;
6452;SDS011;3259;51.080;13.712;2023-02-16T13:32:25;19.20;;;12.02;;
6452;SDS011;3259;51.080;13.712;2023-02-16T13:35:48;20.70;;;11.43;;
6452;SDS011;3259;51.080;13.712;2023-02-16T13:38:48;21.65;;;11.80;;
6452;SDS011;3259;51.080;13.712;2023-02-16T13:45:21;22.85;;;12.85;;
6452;SDS011;3259;51.080;13.712;2023-02-16T13:48:13;20.45;;;12.60;;
6452;SDS011;3259;51.080;13.712;2023-02-16T13:51:05;20.23;;;13.80;;
6452;SDS011;3259;51.080;13.712;2023-02-16T13:53:58;20.60;;;12.82;;
6452;SDS011;3259;51.080;13.712;2023-02-16T13:56:49;21.40;;;13.25;;
6452;SDS011;3259;51.080;13.712;2023-02-16T14:02:52;18.15;;;10.63;;
6452;SDS011;3259;51.080;13.712;2023-02-16T14:05:44;14.70;;;10.23;;
6452;SDS011;3259;51.080;13.712;2023-02-16T14:08:36;13.07;;;8.82;;
6452;SDS011;3259;51.080;13.712;2023-02-16T14:11:25;11.77;;;8.90;;
6452;SDS011;3259;51.080;13.712;2023-02-16T14:14:24;14.93;;;8.63;;
6452;SDS011;3259;51.080;13.712;2023-02-16T14:17:15;26.90;;;9.02;;
6452;SDS011;3259;51.080;13.712;2023-02-16T14:20:25;17.65;;;10.18;;
6452;SDS011;3259;51.080;13.712;2023-02-16T14:23:24;17.63;;;10.45;;
6452;SDS011;3259;51.080;13.712;2023-02-16T14:26:16;16.30;;;9.93;;
6452;SDS011;3259;51.080;13.712;2023-02-16T14:29:12;19.05;;;10.45;;
6452;SDS011;3259;51.080;13.712;2023-02-16T14:32:15;17.20;;;11.10;;
6452;SDS011;3259;51.080;13.712;2023-02-16T14:35:13;18.17;;;10.63;;
6452;SDS011;3259;51.080;13.712;2023-02-16T14:38:06;14.50;;;9.48;;
6452;SDS011;3259;51.080;13.712;2023-02-16T14:45:42;12.23;;;8.73;;
6452;SDS011;3259;51.080;13.712;2023-02-16T14:52:19;24.48;;;10.70;;
6452;SDS011;3259;51.080;13.712;2023-02-16T14:55:31;16.13;;;11.07;;
6452;SDS011;3259;51.080;13.712;2023-02-16T14:58:36;14.95;;;10.15;;
6452;SDS011;3259;51.080;13.712;2023-02-16T15:01:33;16.50;;;10.68;;
6452;SDS011;3259;51.080;13.712;2023-02-16T15:04:27;18.77;;;10.00;;
6452;SDS011;3259;51.080;13.712;2023-02-16T15:07:17;15.20;;;10.23;;
6452;SDS011;3259;51.080;13.712;2023-02-16T15:10:10;16.85;;;11.30;;
6452;SDS011;3259;51.080;13.712;2023-02-16T15:13:04;15.82;;;10.27;;
6452;SDS011;3259;51.080;13.712;2023-02-16T15:15:54;17.15;;;10.52;;
6452;SDS011;3259;51.080;13.712;2023-02-16T15:18:49;18.38;;;11.18;;
6452;SDS011;3259;51.080;13.712;2023-02-16T15:21:39;16.58;;;11.13;;
6452;SDS011;3259;51.080;13.712;2023-02-16T15:24:28;18.98;;;10.65;;
6452;SDS011;3259;51.080;13.712;2023-02-16T15:27:19;17.92;;;11.32;;
6452;SDS011;3259;51.080;13.712;2023-02-16T15:30:18;18.70;;;12.35;;
6452;SDS011;3259;51.080;13.712;2023-02-16T15:33:10;15.02;;;11.27;;
6452;SDS011;3259;51.080;13.712;2023-02-16T15:36:02;20.73;;;11.68;;
6452;SDS011;3259;51.080;13.712;2023-02-16T15:38:55;19.63;;;10.93;;
6452;SDS011;3259;51.080;13.712;2023-02-16T15:41:46;18.05;;;11.32;;
6452;SDS011;3259;51.080;13.712;2023-02-16T15:44:36;17.88;;;12.20;;
6452;SDS011;3259;51.080;13.712;2023-02-16T15:47:25;20.92;;;11.75;;
6452;SDS011;3259;51.080;13.712;2023-02-16T15:50:14;22.02;;;11.98;;
6452;SDS011;3259;51.080;13.712;2023-02-16T15:53:10;19.70;;;11.57;;
6452;SDS011;3259;51.080;13.712;2023-02-16T15:56:00;17.35;;;10.60;;
6452;SDS011;3259;51.080;13.712;2023-02-16T15:58:50;16.35;;;11.38;;
6452;SDS011;3259;51.080;13.712;2023-02-16T16:01:40;19.65;;;11.85;;
6452;SDS011;3259;51.080;13.712;2023-02-16T16:04:29;19.95;;;11.07;;
6452;SDS011;3259;51.080;13.712;2023-02-16T16:07:25;13.68;;;10.50;;
6452;SDS011;3259;51.080;13.712;2023-02-16T16:10:19;14.57;;;10.25;;
6452;SDS011;3259;51.080;13.712;2023-02-16T16:13:14;17.80;;;10.60;;
6452;SDS011;3259;51.080;13.712;2023-02-16T16:16:06;16.70;;;9.82;;
6452;SDS011;3259;51.080;13.712;2023-02-16T16:19:01;15.77;;;9.68;;
6452;SDS011;3259;51.080;13.712;2023-02-16T16:21:54;14.45;;;9.65;;
6452;SDS011;3259;51.080;13.712;2023-02-16T16:24:43;12.80;;;10.25;;
6452;SDS011;3259;51.080;13.712;2023-02-16T16:27:35;13.80;;;10.05;;
6452;SDS011;3259;51.080;13.712;2023-02-16T16:30:26;13.02;;;8.88;;
6452;SDS011;3259;51.080;13.712;2023-02-16T16:33:15;13.13;;;8.20;;
6452;SDS011;3259;51.080;13.712;2023-02-16T16:36:08;12.75;;;9.05;;
6452;SDS011;3259;51.080;13.712;2023-02-16T16:42:15;12.55;;;7.65;;
6452;SDS011;3259;51.080;13.712;2023-02-16T16:45:14;8.20;;;7.25;;
6452;SDS011;3259;51.080;13.712;2023-02-16T16:48:23;17.88;;;7.90;;
6452;SDS011;3259;51.080;13.712;2023-02-16T16:51:14;8.32;;;7.43;;
6452;SDS011;3259;51.080;13.712;2023-02-16T16:54:09;8.00;;;6.70;;
6452;SDS011;3259;51.080;13.712;2023-02-16T16:56:58;9.18;;;6.68;;
6452;SDS011;3259;51.080;13.712;2023-02-16T16:59:47;8.98;;;7.15;;
6452;SDS011;3259;51.080;13.712;2023-02-16T17:02:37;9.95;;;6.55;;
6452;SDS011;3259;51.080;13.712;2023-02-16T17:05:26;7.32;;;6.22;;
6452;SDS011;3259;51.080;13.712;2023-02-16T17:08:15;8.07;;;6.18;;
6452;SDS011;3259;51.080;13.712;2023-02-16T17:11:04;9.45;;;6.15;;
6452;SDS011;3259;51.080;13.712;2023-02-16T17:13:55;9.00;;;6.57;;
6452;SDS011;3259;51.080;13.712;2023-02-16T17:16:45;6.25;;;5.65;;
6452;SDS011;3259;51.080;13.712;2023-02-16T17:19:37;7.05;;;5.45;;
6452;SDS011;3259;51.080;13.712;2023-02-16T17:22:28;9.13;;;5.80;;
6452;SDS011;3259;51.080;13.712;2023-02-16T17:25:17;6.13;;;5.35;;
6452;SDS011;3259;51.080;13.712;2023-02-16T17:28:06;10.10;;;5.60;;
6452;SDS011;3259;51.080;13.712;2023-02-16T17:30:56;8.95;;;5.65;;
6452;SDS011;3259;51.080;13.712;2023-02-16T17:33:45;8.00;;;5.20;;
6452;SDS011;3259;51.080;13.712;2023-02-16T17:36:35;10.48;;;6.20;;
6452;SDS011;3259;51.080;13.712;2023-02-16T17:39:25;9.10;;;5.35;;
6452;SDS011;3259;51.080;13.712;2023-02-16T17:42:13;8.48;;;4.28;;
6452;SDS011;3259;51.080;13.712;2023-02-16T17:45:03;11.85;;;5.45;;
6452;SDS011;3259;51.080;13.712;2023-02-16T17:47:52;5.88;;;5.35;;
6452;SDS011;3259;51.080;13.712;2023-02-16T17:50:41;5.78;;;5.18;;
6452;SDS011;3259;51.080;13.712;2023-02-16T17:53:31;8.55;;;5.55;;
6452;SDS011;3259;51.080;13.712;2023-02-16T17:56:22;9.00;;;5.53;;
6452;SDS011;3259;51.080;13.712;2023-02-16T17:59:12;6.70;;;4.43;;
6452;SDS011;3259;51.080;13.712;2023-02-16T18:02:01;5.82;;;4.45;;
6452;SDS011;3259;51.080;13.712;2023-02-16T18:04:50;6.70;;;4.88;;